San Pedro, Belize

3:40 PM CST on April 01, 2015 (GMT -0600)
Caye Caulker Village | | Change Station
CLOSE
Current Station
Personal Weather Station
Location: Caye Caulker, BELIZE DISTRICT
Elevation: 40 ft
Nearby Weather Stations

Elev 40 ft 17.73 °N, 88.03 °W | Updated 21 seconds ago

Overcast
Overcast
80.5 °F
Feels Like 85 °F
N
20.7
Wind Variable Wind from East
Gusts 20.7 mph

Today
High -- | Low -- °F
--% Chance of Precip.
Yesterday
High -- | Low -- °F
Precip. -- in
5:46 AM 6:05 PM
Waxing Gibbous, 94% visible
Pressure 29.93 in
Visibility 6.2 miles
Clouds Mostly Cloudy 1700 ft
Scattered Clouds 4500 ft
Heat Index 85 °F
Dew Point 73 °F
Humidity 79%
Rainfall 0.00 in
Snow Depth Not available.
UV 7 out of 12
Pollen Not available.
Air Quality Not available.
Flu Activity Not available.
METAR MZBZ 012100Z 10008KT 9999 -SHRA BKN017 SCT045 27/24 A2993 Q1013 NOSIG

More Conditions Fewer Conditions

Pressure 29.93 in
Visibility 6.2 miles
Clouds Mostly Cloudy 1700 ft
Scattered Clouds 4500 ft
Heat Index 85 °F
Dew Point 73 °F
Humidity 79%
Rainfall 0.00 in
Snow Depth Not available.
UV 7 out of 12
Pollen Not available.
Air Quality Not available.
Flu Activity Not available.
METAR MZBZ 012100Z 10008KT 9999 -SHRA BKN017 SCT045 27/24 A2993 Q1013 NOSIG

More Conditions Fewer Conditions

10-Day Weather Forecast

Almanac

Astronomy

Apr. 01, 2015 Rise Set
Actual Time
Civil Twilight
Nautical Twilight
Astronomical Twilight
Moon
Length of Visible Light
Length of Day
Tomorrow will be .
, % of the Moon is Illuminated

Today's Extremes

Country Highs Country Lows

Community

WunderPhotos

Upload Photos

1,810,090 photos uploaded!

WunderBlogs® & News

Nearby

Air Quality

  Air Quality AQ Index Pollutant
Not available.

Snow Depth

Station Depth Elevation

Earthquake Activity

City Distance Mag. Time & Date
Minimum magnitude displayed is 2.5.

Coastal Water Temperatures

Place Temperature

Stations

Nearby Weather Stations

Station Location Temp. Windchill Dew Point Humidity Wind Precip. Elev Updated Type